createdAt,value
2022-07-30T00:00:13.534Z,63.50
2022-07-30T00:01:12.929Z,63.50
2022-07-30T00:02:12.928Z,63.60
2022-07-30T00:03:13.030Z,63.70
2022-07-30T00:04:13.103Z,63.70
2022-07-30T00:05:13.236Z,63.80
2022-07-30T00:06:13.199Z,63.90
2022-07-30T00:07:13.125Z,63.80
2022-07-30T00:08:13.571Z,64.10
2022-07-30T00:09:13.584Z,64.20
2022-07-30T00:10:13.507Z,64.30
2022-07-30T00:11:13.541Z,64.60
2022-07-30T00:12:13.520Z,64.40
2022-07-30T00:13:14.351Z,64.40
2022-07-30T00:14:15.007Z,64.50
2022-07-30T00:15:12.995Z,64.30
2022-07-30T00:16:13.151Z,64.80
2022-07-30T00:17:14.493Z,64.80
2022-07-30T00:18:13.376Z,64.60
2022-07-30T00:19:13.701Z,64.50
2022-07-30T00:20:13.787Z,64.30
2022-07-30T00:21:20.183Z,64.10
2022-07-30T00:22:13.560Z,64.10
2022-07-30T00:23:13.458Z,64.00
2022-07-30T00:24:13.340Z,63.90
2022-07-30T00:25:13.328Z,64.20
2022-07-30T00:26:13.303Z,64.50
2022-07-30T00:27:13.387Z,64.40
2022-07-30T00:28:13.389Z,64.20
2022-07-30T00:29:13.316Z,63.80
2022-07-30T00:30:13.220Z,64.50
2022-07-30T00:31:13.717Z,64.60
2022-07-30T00:32:13.836Z,64.40
2022-07-30T00:33:13.823Z,64.30
2022-07-30T00:34:13.803Z,64.80
2022-07-30T00:35:15.344Z,65.10
2022-07-30T00:36:13.924Z,65.50
2022-07-30T00:37:12.811Z,65.90
2022-07-30T00:38:13.723Z,66.20
2022-07-30T00:39:13.997Z,66.30
2022-07-30T00:40:13.204Z,66.50
2022-07-30T00:41:13.247Z,66.50
2022-07-30T00:42:13.830Z,66.50
2022-07-30T00:43:13.957Z,66.20
2022-07-30T00:44:12.979Z,66.40
2022-07-30T00:45:12.906Z,66.20
2022-07-30T00:46:17.916Z,66.10
2022-07-30T00:47:13.834Z,66.00
2022-07-30T00:48:14.071Z,65.90
2022-07-30T00:49:18.155Z,65.90
2022-07-30T00:50:13.299Z,65.80
2022-07-30T00:51:13.165Z,65.70
2022-07-30T00:52:13.067Z,65.80
2022-07-30T00:53:13.113Z,66.10
2022-07-30T00:54:14.746Z,66.20
2022-07-30T00:55:13.728Z,66.20
2022-07-30T00:56:13.595Z,66.50
2022-07-30T00:57:13.770Z,66.50
2022-07-30T00:58:13.536Z,66.70
2022-07-30T00:59:13.492Z,66.80
2022-07-30T01:00:13.673Z,67.10
2022-07-30T01:01:13.840Z,67.40
2022-07-30T01:02:14.106Z,67.80
2022-07-30T01:03:13.507Z,67.80
2022-07-30T01:04:13.995Z,67.80
2022-07-30T01:05:13.075Z,68.10
2022-07-30T01:06:14.181Z,68.10
2022-07-30T01:07:13.555Z,68.30
2022-07-30T01:08:13.462Z,68.00
2022-07-30T01:09:13.919Z,68.10
2022-07-30T01:10:12.971Z,68.10
2022-07-30T01:11:12.973Z,68.40
2022-07-30T01:12:13.127Z,68.40
2022-07-30T01:13:13.113Z,68.30
2022-07-30T01:14:12.987Z,68.40
2022-07-30T01:15:13.026Z,68.40
2022-07-30T01:16:13.360Z,68.30
2022-07-30T01:17:13.383Z,68.20
2022-07-30T01:18:13.421Z,68.50
2022-07-30T01:19:13.430Z,68.40
2022-07-30T01:20:13.325Z,68.50
2022-07-30T01:21:13.351Z,68.70
2022-07-30T01:22:13.191Z,68.60
2022-07-30T01:23:13.372Z,68.30
2022-07-30T01:24:13.419Z,68.00
2022-07-30T01:25:13.544Z,68.10
2022-07-30T01:26:13.450Z,68.20
2022-07-30T01:27:14.828Z,68.30
2022-07-30T01:28:13.027Z,68.30
2022-07-30T01:29:13.600Z,68.10
2022-07-30T01:30:13.594Z,68.30
2022-07-30T01:31:13.113Z,68.50
2022-07-30T01:32:13.060Z,68.70
2022-07-30T01:33:18.459Z,68.70
2022-07-30T01:34:13.512Z,69.20
2022-07-30T01:35:13.430Z,69.20
2022-07-30T01:36:13.382Z,69.40
2022-07-30T01:37:13.263Z,69.40
2022-07-30T01:38:13.174Z,70.00
2022-07-30T01:39:13.435Z,70.70
2022-07-30T01:40:18.503Z,71.50
2022-07-30T01:41:13.622Z,71.70
2022-07-30T01:42:13.562Z,72.20
2022-07-30T01:43:13.598Z,72.30
2022-07-30T01:44:13.808Z,72.10
2022-07-30T01:45:13.704Z,71.90
2022-07-30T01:46:14.019Z,72.20
2022-07-30T01:47:13.167Z,71.80
2022-07-30T01:48:13.176Z,71.50
2022-07-30T01:49:13.509Z,71.20
2022-07-30T01:50:13.752Z,71.10
2022-07-30T01:51:13.589Z,71.60
2022-07-30T01:52:13.579Z,71.80
2022-07-30T01:53:13.614Z,71.70
2022-07-30T01:54:13.723Z,71.40
2022-07-30T01:55:18.587Z,71.30
2022-07-30T01:56:13.614Z,71.00
2022-07-30T01:57:13.352Z,70.80
2022-07-30T01:58:13.297Z,70.80
2022-07-30T01:59:18.734Z,70.80
2022-07-30T02:00:13.746Z,70.80
2022-07-30T02:01:13.999Z,70.60
2022-07-30T02:02:13.289Z,70.30
2022-07-30T02:03:13.065Z,70.50
2022-07-30T02:04:13.436Z,71.00
2022-07-30T02:05:13.569Z,71.30
2022-07-30T02:06:13.677Z,71.30
2022-07-30T02:07:13.511Z,70.90
2022-07-30T02:08:14.034Z,71.20
2022-07-30T02:09:13.417Z,71.80
2022-07-30T02:10:13.440Z,71.80
2022-07-30T02:11:13.292Z,72.10
2022-07-30T02:12:13.329Z,72.20
2022-07-30T02:13:13.503Z,72.40
2022-07-30T02:14:13.583Z,72.20
2022-07-30T02:15:13.497Z,72.20
2022-07-30T02:16:13.459Z,72.50
2022-07-30T02:17:19.086Z,72.60
2022-07-30T02:18:13.411Z,73.00
2022-07-30T02:19:13.957Z,73.30
2022-07-30T02:20:13.392Z,73.50
2022-07-30T02:21:13.471Z,73.50
2022-07-30T02:22:13.287Z,73.70
2022-07-30T02:23:13.215Z,73.60
2022-07-30T02:24:13.112Z,73.90
2022-07-30T02:25:13.373Z,73.70
2022-07-30T02:26:13.399Z,73.70
2022-07-30T02:27:13.362Z,73.70
2022-07-30T02:28:13.513Z,73.60
2022-07-30T02:29:13.541Z,73.50
2022-07-30T02:30:13.519Z,73.70
2022-07-30T02:31:18.483Z,74.00
2022-07-30T02:32:13.841Z,74.10
2022-07-30T02:33:13.936Z,74.00
2022-07-30T02:34:13.266Z,74.10
2022-07-30T02:35:18.174Z,74.30
2022-07-30T02:36:13.381Z,74.10
2022-07-30T02:37:13.324Z,73.90
2022-07-30T02:38:13.134Z,74.60
2022-07-30T02:39:13.477Z,74.60
2022-07-30T02:40:13.416Z,74.40
2022-07-30T02:41:13.385Z,74.70
2022-07-30T02:42:13.504Z,74.60
2022-07-30T02:43:13.506Z,74.60
2022-07-30T02:44:13.721Z,74.90
2022-07-30T02:45:18.896Z,74.80
2022-07-30T02:46:13.270Z,74.80
2022-07-30T02:47:13.613Z,74.80
2022-07-30T02:48:31.188Z,74.60
2022-07-30T02:49:13.608Z,74.40
2022-07-30T02:50:13.443Z,74.30
2022-07-30T02:51:13.559Z,74.60
2022-07-30T02:52:13.541Z,74.80
2022-07-30T02:53:13.465Z,74.90
2022-07-30T02:54:13.445Z,75.10
2022-07-30T02:55:13.365Z,75.20
2022-07-30T02:56:13.608Z,75.20
2022-07-30T02:57:13.590Z,75.30
2022-07-30T02:58:13.416Z,75.20
2022-07-30T02:59:13.285Z,74.90
2022-07-30T03:00:13.207Z,74.80
2022-07-30T03:01:13.228Z,74.60
2022-07-30T03:02:14.763Z,74.60
2022-07-30T03:03:13.169Z,74.40
2022-07-30T03:04:13.134Z,74.70
2022-07-30T03:05:13.248Z,74.80
2022-07-30T03:06:13.275Z,74.60
2022-07-30T03:07:13.196Z,74.60
2022-07-30T03:08:13.291Z,74.50
2022-07-30T03:09:13.268Z,74.50
2022-07-30T03:10:13.669Z,74.50
2022-07-30T03:11:13.655Z,74.30
2022-07-30T03:12:13.622Z,74.40
2022-07-30T03:13:13.563Z,74.50
2022-07-30T03:14:13.418Z,74.30
2022-07-30T03:15:13.215Z,74.50
2022-07-30T03:16:13.339Z,74.70
2022-07-30T03:17:13.317Z,74.60
2022-07-30T03:18:13.330Z,74.60
2022-07-30T03:19:13.469Z,74.90
2022-07-30T03:20:14.495Z,74.90
2022-07-30T03:21:13.524Z,74.70
2022-07-30T03:22:13.935Z,74.40
2022-07-30T03:23:12.978Z,74.90
2022-07-30T03:24:12.901Z,75.10
2022-07-30T03:25:13.187Z,74.90
2022-07-30T03:26:13.514Z,75.10
2022-07-30T03:27:15.504Z,75.00
2022-07-30T03:28:13.492Z,75.20
2022-07-30T03:29:13.475Z,75.20
2022-07-30T03:30:13.489Z,75.40
2022-07-30T03:31:13.536Z,75.30
2022-07-30T03:32:14.941Z,75.50
2022-07-30T03:33:13.258Z,75.60
2022-07-30T03:34:14.479Z,75.70
2022-07-30T03:35:16.800Z,75.70
2022-07-30T03:36:13.563Z,75.90
2022-07-30T03:37:13.636Z,75.70
2022-07-30T03:38:13.519Z,75.30
2022-07-30T03:39:13.558Z,75.30
2022-07-30T03:40:13.664Z,75.40
2022-07-30T03:41:13.674Z,75.50
2022-07-30T03:42:13.990Z,75.70
2022-07-30T03:43:18.358Z,75.90
2022-07-30T03:44:13.284Z,75.90
2022-07-30T03:45:13.360Z,75.90
2022-07-30T03:46:13.370Z,76.10
2022-07-30T03:47:13.433Z,76.10
2022-07-30T03:48:13.540Z,76.60
2022-07-30T03:49:13.959Z,76.40
2022-07-30T03:50:12.882Z,76.70
2022-07-30T03:51:13.463Z,76.60
2022-07-30T03:52:13.336Z,76.50
2022-07-30T03:53:13.499Z,76.70
2022-07-30T03:54:13.944Z,76.80
2022-07-30T03:55:13.050Z,76.50
2022-07-30T03:56:13.026Z,76.90
2022-07-30T03:57:15.327Z,76.80
2022-07-30T03:58:18.343Z,76.80
2022-07-30T03:59:13.281Z,76.90
2022-07-30T04:00:13.331Z,77.00
2022-07-30T04:01:13.322Z,77.00
2022-07-30T04:02:13.314Z,76.90
2022-07-30T04:03:13.421Z,77.00
2022-07-30T04:04:12.902Z,77.10
2022-07-30T04:05:12.942Z,77.20
2022-07-30T04:06:12.917Z,77.60
2022-07-30T04:07:13.219Z,77.60
2022-07-30T04:08:13.240Z,77.70
2022-07-30T04:09:13.866Z,77.90
2022-07-30T04:10:12.818Z,78.10
2022-07-30T04:11:13.673Z,78.00
2022-07-30T04:12:13.481Z,78.30
2022-07-30T04:13:13.766Z,78.40
2022-07-30T04:14:13.912Z,78.30
2022-07-30T04:16:05.841Z,78.40
2022-07-30T04:16:39.642Z,78.20
2022-07-30T04:17:13.723Z,78.40
2022-07-30T04:18:13.823Z,78.40
2022-07-30T04:19:13.857Z,78.80
2022-07-30T04:20:17.932Z,78.80
2022-07-30T04:21:16.172Z,78.60
2022-07-30T04:22:13.868Z,78.70
2022-07-30T04:23:13.804Z,79.00
2022-07-30T04:24:13.676Z,79.00
2022-07-30T04:25:22.447Z,79.10
2022-07-30T04:26:13.669Z,79.10
2022-07-30T04:27:13.607Z,79.20
2022-07-30T04:28:13.564Z,79.20
2022-07-30T04:29:18.173Z,79.00
2022-07-30T04:30:13.328Z,79.00
2022-07-30T04:31:13.334Z,79.00
2022-07-30T04:32:13.371Z,79.00
2022-07-30T04:33:13.391Z,78.90
2022-07-30T04:34:13.391Z,78.80
2022-07-30T04:35:13.358Z,78.70
2022-07-30T04:36:16.231Z,79.10
2022-07-30T04:37:13.404Z,78.70
2022-07-30T04:38:13.368Z,79.40
2022-07-30T04:39:13.217Z,79.70
2022-07-30T04:40:13.194Z,79.50
2022-07-30T04:41:13.198Z,79.60
2022-07-30T04:42:13.073Z,79.60
2022-07-30T04:43:13.046Z,79.70
2022-07-30T04:44:13.315Z,79.70
2022-07-30T04:45:13.882Z,79.80
2022-07-30T04:46:13.010Z,79.60
2022-07-30T04:47:12.961Z,79.30
2022-07-30T04:48:13.861Z,79.10
2022-07-30T04:49:13.974Z,79.30
2022-07-30T04:50:13.390Z,79.70
2022-07-30T04:51:13.952Z,79.80
2022-07-30T04:52:13.271Z,80.20
2022-07-30T04:53:13.555Z,80.10
2022-07-30T04:54:15.391Z,79.90
2022-07-30T04:55:13.171Z,79.80
2022-07-30T04:56:13.304Z,79.60
2022-07-30T04:57:13.467Z,79.50
2022-07-30T04:58:13.766Z,79.60
2022-07-30T04:59:13.872Z,79.80
2022-07-30T05:00:13.946Z,79.40
2022-07-30T05:01:12.873Z,79.00
2022-07-30T05:02:13.083Z,79.00
2022-07-30T05:03:13.015Z,79.30
2022-07-30T05:04:12.962Z,79.50
2022-07-30T05:05:12.947Z,79.50
2022-07-30T05:06:13.001Z,79.20
2022-07-30T05:07:13.049Z,79.30
2022-07-30T05:08:13.112Z,79.50
2022-07-30T05:09:13.462Z,79.10
2022-07-30T05:10:13.539Z,78.70
2022-07-30T05:11:13.540Z,78.70
2022-07-30T05:12:13.453Z,78.50
2022-07-30T05:13:13.400Z,78.60
2022-07-30T05:14:13.623Z,78.30
2022-07-30T05:15:18.570Z,78.10
2022-07-30T05:16:13.832Z,78.30
2022-07-30T05:17:12.855Z,78.50
2022-07-30T05:18:13.988Z,78.50
2022-07-30T05:19:12.935Z,78.80
2022-07-30T05:20:12.899Z,79.20
2022-07-30T05:21:12.892Z,79.00
2022-07-30T05:22:12.840Z,79.30
2022-07-30T05:23:13.871Z,78.60
2022-07-30T05:24:13.861Z,78.60
2022-07-30T05:25:15.848Z,78.90
2022-07-30T05:26:13.261Z,79.20
2022-07-30T05:27:14.626Z,79.40
2022-07-30T05:28:13.693Z,78.80
2022-07-30T05:29:20.082Z,79.20
2022-07-30T05:30:13.419Z,78.50
2022-07-30T05:31:13.413Z,77.70
2022-07-30T05:32:13.361Z,77.50
2022-07-30T05:33:15.823Z,77.10
2022-07-30T05:34:13.416Z,76.70
2022-07-30T05:35:13.340Z,76.60
2022-07-30T05:36:13.420Z,76.70
2022-07-30T05:37:13.455Z,77.10
2022-07-30T05:38:13.564Z,77.00
2022-07-30T05:39:13.914Z,77.20
2022-07-30T05:40:12.897Z,77.00
2022-07-30T05:41:24.564Z,76.80
2022-07-30T05:42:13.191Z,76.70
2022-07-30T05:43:12.978Z,77.50
2022-07-30T05:44:12.846Z,77.60
2022-07-30T05:45:13.703Z,78.00
2022-07-30T05:46:13.631Z,77.60
2022-07-30T05:47:13.881Z,76.70
2022-07-30T05:48:14.145Z,76.70
2022-07-30T05:49:13.100Z,77.10
2022-07-30T05:50:13.547Z,78.00
2022-07-30T05:51:13.559Z,78.00
2022-07-30T05:52:13.682Z,77.30
2022-07-30T05:53:13.927Z,77.60
2022-07-30T05:54:12.929Z,78.00
2022-07-30T05:55:13.072Z,77.60
2022-07-30T05:56:13.130Z,77.20
2022-07-30T05:57:12.944Z,77.20
2022-07-30T05:58:13.037Z,77.90
2022-07-30T05:59:12.852Z,77.70
2022-07-30T06:00:14.402Z,77.20
2022-07-30T06:01:13.356Z,78.20
2022-07-30T06:02:13.771Z,78.00
2022-07-30T06:03:13.865Z,77.80
2022-07-30T06:04:14.088Z,77.80
2022-07-30T06:05:13.263Z,77.30
2022-07-30T06:06:13.694Z,77.60
2022-07-30T06:07:19.360Z,77.40
2022-07-30T06:08:13.822Z,78.30
2022-07-30T06:09:13.787Z,78.60
2022-07-30T06:10:13.895Z,78.50
2022-07-30T06:11:18.171Z,78.10
2022-07-30T06:12:13.509Z,77.90
2022-07-30T06:13:13.438Z,76.80
2022-07-30T06:14:13.751Z,77.30
2022-07-30T06:15:13.770Z,77.20
2022-07-30T06:16:13.757Z,77.00
2022-07-30T06:17:13.749Z,77.10
2022-07-30T06:18:13.913Z,76.80
2022-07-30T06:19:19.400Z,76.80
2022-07-30T06:20:13.905Z,76.60
2022-07-30T06:21:12.787Z,77.00
2022-07-30T06:22:13.923Z,77.40
2022-07-30T06:23:13.237Z,77.80
2022-07-30T06:24:13.106Z,77.60
2022-07-30T06:25:13.286Z,77.90
2022-07-30T06:26:18.880Z,77.60
2022-07-30T06:27:15.511Z,77.50
2022-07-30T06:28:35.199Z,77.60
2022-07-30T06:29:13.556Z,76.80
2022-07-30T06:30:13.489Z,77.30
2022-07-30T06:31:14.012Z,76.50
2022-07-30T06:32:13.095Z,76.00
2022-07-30T06:33:13.051Z,76.30
2022-07-30T06:34:13.051Z,76.50
2022-07-30T06:35:13.246Z,76.00
2022-07-30T06:36:13.849Z,76.00
2022-07-30T06:37:13.293Z,75.50
2022-07-30T06:38:14.186Z,75.10
2022-07-30T06:39:13.344Z,75.20
2022-07-30T06:40:13.277Z,75.20
2022-07-30T06:41:18.341Z,76.00
2022-07-30T06:42:13.334Z,76.00
2022-07-30T06:43:13.378Z,75.70
2022-07-30T06:44:18.331Z,75.30
2022-07-30T06:45:13.354Z,75.00
2022-07-30T06:46:13.834Z,75.10
2022-07-30T06:47:13.953Z,75.70
2022-07-30T06:48:13.294Z,76.10
2022-07-30T06:49:13.810Z,75.90
2022-07-30T06:50:13.972Z,75.50
2022-07-30T06:51:13.334Z,75.80
2022-07-30T06:52:18.357Z,75.80
2022-07-30T06:53:13.685Z,75.60
2022-07-30T06:54:13.628Z,75.60
2022-07-30T06:55:13.626Z,74.70
2022-07-30T06:56:13.597Z,74.60
2022-07-30T06:57:13.467Z,74.30
2022-07-30T06:58:13.411Z,74.00
2022-07-30T06:59:13.423Z,73.30
2022-07-30T07:00:13.506Z,73.80
2022-07-30T07:01:13.598Z,74.00
2022-07-30T07:02:13.842Z,74.00
2022-07-30T07:03:14.024Z,74.10
2022-07-30T07:04:13.038Z,73.70
2022-07-30T07:05:18.059Z,74.40
2022-07-30T07:06:13.132Z,74.50
2022-07-30T07:07:13.759Z,74.00
2022-07-30T07:08:14.384Z,74.40
2022-07-30T07:09:13.345Z,74.90
2022-07-30T07:10:13.179Z,75.30
2022-07-30T07:11:13.216Z,74.50
2022-07-30T07:12:13.535Z,74.80
2022-07-30T07:13:13.715Z,74.60
2022-07-30T07:14:13.747Z,75.10
2022-07-30T07:15:14.163Z,74.70
2022-07-30T07:16:13.038Z,74.80
2022-07-30T07:17:13.655Z,74.80
2022-07-30T07:18:13.910Z,74.60
2022-07-30T07:19:13.500Z,73.90
2022-07-30T07:20:13.103Z,73.30
2022-07-30T07:21:13.277Z,73.90
2022-07-30T07:22:13.334Z,74.50
2022-07-30T07:23:13.443Z,74.70
2022-07-30T07:24:12.865Z,74.40
2022-07-30T07:25:14.008Z,74.90
2022-07-30T07:26:13.020Z,73.60
2022-07-30T07:27:15.575Z,73.80
2022-07-30T07:28:13.844Z,73.60
2022-07-30T07:29:13.125Z,74.40
2022-07-30T07:30:18.275Z,74.30
2022-07-30T07:32:06.111Z,74.50
2022-07-30T07:32:14.841Z,73.90
2022-07-30T07:33:15.588Z,74.20
2022-07-30T07:34:16.993Z,73.50
2022-07-30T07:35:13.167Z,73.00
2022-07-30T07:36:13.155Z,72.70
2022-07-30T07:37:13.210Z,73.00
2022-07-30T07:38:13.116Z,72.70
2022-07-30T07:39:14.812Z,72.20
2022-07-30T07:40:13.014Z,72.40
2022-07-30T07:41:13.196Z,71.30
2022-07-30T07:42:13.342Z,71.80
2022-07-30T07:43:13.382Z,71.90
2022-07-30T07:44:13.400Z,72.20
2022-07-30T07:45:13.472Z,73.50
2022-07-30T07:46:13.513Z,73.30
2022-07-30T07:47:13.771Z,72.50
2022-07-30T07:48:13.787Z,73.00
2022-07-30T07:49:14.025Z,73.90
2022-07-30T07:50:13.276Z,74.30
2022-07-30T07:51:13.237Z,73.80
2022-07-30T07:52:13.457Z,73.40
2022-07-30T07:53:13.447Z,73.60
2022-07-30T07:54:21.727Z,73.30
2022-07-30T07:55:13.349Z,73.60
2022-07-30T07:56:13.076Z,73.40
2022-07-30T07:57:15.286Z,72.50
2022-07-30T07:58:13.496Z,71.90
2022-07-30T07:59:13.699Z,71.60
2022-07-30T08:00:13.336Z,71.10
2022-07-30T08:01:13.328Z,70.40
2022-07-30T08:02:13.480Z,71.20
2022-07-30T08:03:13.629Z,71.40
2022-07-30T08:04:13.886Z,71.90
2022-07-30T08:05:12.802Z,72.40
2022-07-30T08:06:15.203Z,72.00
2022-07-30T08:07:13.545Z,70.90
2022-07-30T08:08:13.879Z,71.10
2022-07-30T08:09:14.138Z,70.40
2022-07-30T08:10:13.118Z,69.50
2022-07-30T08:11:13.090Z,70.80
2022-07-30T08:12:12.991Z,70.60
2022-07-30T08:13:49.189Z,70.50
2022-07-30T08:14:13.484Z,71.00
2022-07-30T08:15:13.680Z,70.30
2022-07-30T08:16:13.715Z,70.10
2022-07-30T08:17:13.749Z,70.20
2022-07-30T08:18:13.639Z,71.10
2022-07-30T08:19:13.765Z,70.50
2022-07-30T08:20:13.898Z,69.70
2022-07-30T08:21:13.294Z,69.00
2022-07-30T08:22:13.202Z,69.90
2022-07-30T08:23:13.580Z,70.70
2022-07-30T08:24:13.592Z,70.60
2022-07-30T08:25:24.305Z,70.10
2022-07-30T08:26:13.976Z,68.50
2022-07-30T08:27:13.208Z,67.60
2022-07-30T08:28:34.161Z,69.20
2022-07-30T08:29:17.117Z,69.40
2022-07-30T08:30:13.357Z,70.20
2022-07-30T08:31:13.647Z,70.00
2022-07-30T08:32:14.034Z,69.70
2022-07-30T08:33:13.189Z,69.80
2022-07-30T08:34:13.263Z,69.00
2022-07-30T08:35:13.298Z,69.40
2022-07-30T08:36:13.209Z,68.10
2022-07-30T08:37:14.101Z,69.90
2022-07-30T08:38:18.609Z,71.30
2022-07-30T08:39:13.572Z,70.40
2022-07-30T08:40:13.664Z,69.60
2022-07-30T08:41:13.613Z,69.00
2022-07-30T08:42:14.670Z,69.30
2022-07-30T08:43:13.838Z,70.50
2022-07-30T08:44:13.893Z,69.50
2022-07-30T08:45:12.877Z,69.00
2022-07-30T08:46:13.931Z,69.40
2022-07-30T08:47:12.860Z,69.50
2022-07-30T08:48:16.575Z,68.50
2022-07-30T08:49:13.823Z,68.00
2022-07-30T08:50:14.413Z,67.40
2022-07-30T08:51:12.833Z,67.40
2022-07-30T08:52:13.783Z,67.60
2022-07-30T08:53:19.202Z,67.60
2022-07-30T08:54:13.285Z,66.10
2022-07-30T08:55:13.416Z,65.50
2022-07-30T08:56:13.323Z,64.90
2022-07-30T08:57:13.396Z,65.80
2022-07-30T08:58:13.515Z,65.40
2022-07-30T08:59:13.500Z,65.60
2022-07-30T09:00:13.523Z,67.50
2022-07-30T09:01:13.551Z,66.50
2022-07-30T09:02:13.779Z,66.30
2022-07-30T09:03:13.032Z,65.20
2022-07-30T09:04:13.395Z,64.30
2022-07-30T09:05:13.278Z,64.40
2022-07-30T09:06:13.354Z,64.10
2022-07-30T09:07:13.509Z,64.40
2022-07-30T09:08:13.455Z,63.00
2022-07-30T09:09:13.635Z,63.30
2022-07-30T09:10:13.566Z,62.80
2022-07-30T09:11:13.546Z,62.40
2022-07-30T09:12:14.489Z,62.40
2022-07-30T09:13:13.614Z,60.90
2022-07-30T09:14:14.118Z,60.70
2022-07-30T09:15:13.061Z,60.70
2022-07-30T09:16:13.285Z,60.20
2022-07-30T09:17:13.162Z,59.40
2022-07-30T09:18:13.302Z,59.10
2022-07-30T09:19:13.237Z,58.60
2022-07-30T09:20:13.036Z,58.50
2022-07-30T09:21:13.299Z,59.20
2022-07-30T09:22:13.461Z,58.80
2022-07-30T09:23:13.839Z,57.50
2022-07-30T09:24:13.805Z,56.40
2022-07-30T09:25:13.840Z,56.60
2022-07-30T09:26:13.773Z,56.30
2022-07-30T09:27:14.134Z,56.60
2022-07-30T09:28:16.556Z,55.10
2022-07-30T09:29:14.047Z,55.10
2022-07-30T09:30:13.320Z,55.40
2022-07-30T09:31:13.675Z,54.60
2022-07-30T09:32:13.675Z,55.10
2022-07-30T09:33:13.675Z,53.50
2022-07-30T09:34:14.025Z,54.50
2022-07-30T09:35:13.252Z,52.60
2022-07-30T09:36:14.548Z,52.60
2022-07-30T09:37:13.417Z,51.10
2022-07-30T09:38:13.545Z,49.60
2022-07-30T09:39:13.774Z,49.70
2022-07-30T09:40:14.055Z,50.50
2022-07-30T09:41:36.352Z,49.80
2022-07-30T09:42:13.066Z,50.30
2022-07-30T09:43:13.847Z,50.40
2022-07-30T09:44:13.938Z,49.70
2022-07-30T09:45:12.899Z,46.90
2022-07-30T09:46:14.020Z,46.60
2022-07-30T09:47:13.179Z,46.80
2022-07-30T09:48:13.180Z,46.90
2022-07-30T09:49:13.212Z,46.20
2022-07-30T09:50:13.179Z,45.80
2022-07-30T09:51:15.713Z,45.60
2022-07-30T09:52:13.190Z,46.80
2022-07-30T09:53:13.147Z,45.90
2022-07-30T09:54:13.068Z,47.10
2022-07-30T09:55:12.948Z,46.20
2022-07-30T09:56:13.077Z,45.60
2022-07-30T09:57:22.655Z,46.40
2022-07-30T09:58:20.074Z,49.40
2022-07-30T09:59:18.731Z,47.40
2022-07-30T10:00:13.696Z,47.60
2022-07-30T10:01:13.177Z,46.60
2022-07-30T10:02:13.199Z,46.70
2022-07-30T10:03:21.766Z,46.40
2022-07-30T10:04:13.417Z,45.70
2022-07-30T10:05:14.569Z,44.00
2022-07-30T10:06:12.953Z,43.70
2022-07-30T10:07:25.643Z,45.50
2022-07-30T10:08:16.569Z,44.80
2022-07-30T10:09:16.972Z,44.80
2022-07-30T10:10:13.125Z,44.20
2022-07-30T10:11:14.792Z,44.80
2022-07-30T10:12:13.877Z,44.20
2022-07-30T10:13:14.730Z,44.50
2022-07-30T10:14:14.109Z,43.70
2022-07-30T10:15:13.624Z,44.50
2022-07-30T10:16:13.816Z,43.60
2022-07-30T10:17:14.605Z,43.70
2022-07-30T10:18:13.945Z,44.70
2022-07-30T10:19:19.217Z,45.10
2022-07-30T10:20:13.295Z,45.10
2022-07-30T10:21:13.146Z,44.20
2022-07-30T10:22:13.185Z,43.00
2022-07-30T10:23:15.789Z,43.30
2022-07-30T10:24:13.282Z,42.30
2022-07-30T10:25:16.316Z,43.80
2022-07-30T10:26:13.675Z,43.00
2022-07-30T10:27:13.382Z,41.70
2022-07-30T10:28:13.960Z,41.50
2022-07-30T10:29:16.011Z,41.60
2022-07-30T10:30:13.776Z,42.90
2022-07-30T10:31:47.929Z,42.10
2022-07-30T10:32:13.313Z,44.40
2022-07-30T10:33:34.244Z,44.60
2022-07-30T10:34:13.351Z,46.10
2022-07-30T10:35:12.987Z,44.80
2022-07-30T10:36:18.306Z,44.00
2022-07-30T10:37:13.458Z,43.30
2022-07-30T10:38:14.211Z,44.20
2022-07-30T10:39:13.234Z,45.30
2022-07-30T10:40:13.598Z,43.70
2022-07-30T10:41:12.983Z,43.60
2022-07-30T10:42:13.225Z,42.60
2022-07-30T10:43:13.222Z,40.90
2022-07-30T10:44:12.965Z,41.20
2022-07-30T10:45:17.606Z,40.00
2022-07-30T10:46:21.938Z,39.30
2022-07-30T10:47:14.565Z,39.90
2022-07-30T10:48:13.639Z,39.80
2022-07-30T10:49:18.460Z,40.20
2022-07-30T10:50:15.708Z,42.90
2022-07-30T10:51:25.353Z,43.60
2022-07-30T10:52:13.398Z,42.80
2022-07-30T10:53:13.333Z,41.00
2022-07-30T10:54:18.366Z,39.80
2022-07-30T10:55:15.779Z,38.90
2022-07-30T10:56:12.808Z,39.00
2022-07-30T10:57:14.858Z,38.80
2022-07-30T10:58:14.445Z,38.00
2022-07-30T10:59:15.068Z,37.80
2022-07-30T11:00:15.346Z,39.00
2022-07-30T11:01:18.387Z,38.40
2022-07-30T11:02:17.763Z,38.20
2022-07-30T11:03:15.009Z,37.50
2022-07-30T11:04:14.392Z,37.60
2022-07-30T11:05:16.675Z,38.30
2022-07-30T11:06:13.904Z,38.10
2022-07-30T11:07:17.422Z,36.20
2022-07-30T11:08:18.194Z,36.20
2022-07-30T11:09:14.807Z,38.00
2022-07-30T11:10:13.731Z,39.20
2022-07-30T11:11:19.226Z,41.50
2022-07-30T11:12:15.062Z,43.50
2022-07-30T11:13:13.972Z,42.60
2022-07-30T11:14:13.149Z,42.20
2022-07-30T11:15:19.101Z,41.50
2022-07-30T11:16:17.662Z,40.60
2022-07-30T11:17:15.172Z,40.80
2022-07-30T11:18:13.869Z,39.30
2022-07-30T11:19:56.203Z,40.00
2022-07-30T11:20:13.390Z,42.60
2022-07-30T11:21:15.529Z,43.60
2022-07-30T11:22:13.511Z,43.60
2022-07-30T11:23:14.258Z,43.30
2022-07-30T11:24:14.948Z,42.70
2022-07-30T11:25:14.222Z,41.90
2022-07-30T11:26:14.777Z,39.30
2022-07-30T11:27:15.277Z,39.00
2022-07-30T11:28:13.505Z,38.90
2022-07-30T11:29:15.722Z,38.40
2022-07-30T11:30:17.672Z,38.70
2022-07-30T11:31:13.051Z,38.50
2022-07-30T11:32:14.962Z,40.10
2022-07-30T11:33:16.088Z,39.90
2022-07-30T11:34:14.822Z,39.90
2022-07-30T11:35:16.035Z,38.70
2022-07-30T11:36:16.318Z,38.40
2022-07-30T11:37:18.459Z,38.50
2022-07-30T11:38:14.602Z,37.60
2022-07-30T11:39:17.024Z,36.80
2022-07-30T11:40:16.043Z,37.00
2022-07-30T11:41:21.578Z,36.10
2022-07-30T11:42:15.190Z,36.80
2022-07-30T11:43:14.179Z,37.90
2022-07-30T11:44:18.638Z,35.50
2022-07-30T11:45:19.647Z,33.80
2022-07-30T11:46:16.744Z,33.00
2022-07-30T11:47:16.987Z,33.90
2022-07-30T11:48:17.650Z,35.80
2022-07-30T11:49:18.125Z,35.10
2022-07-30T11:50:18.876Z,35.20
2022-07-30T11:51:18.280Z,34.20
2022-07-30T11:52:16.336Z,34.10
2022-07-30T11:53:18.454Z,34.10
2022-07-30T11:54:16.599Z,34.40
2022-07-30T11:55:17.804Z,35.20
2022-07-30T11:56:18.624Z,35.70
2022-07-30T11:57:17.995Z,34.50
2022-07-30T11:58:18.943Z,34.00
2022-07-30T11:59:17.364Z,36.50
2022-07-30T12:00:20.610Z,37.70
2022-07-30T12:01:16.690Z,39.20
2022-07-30T12:02:18.393Z,41.00
2022-07-30T12:03:18.149Z,39.30
2022-07-30T12:04:19.043Z,37.70
2022-07-30T12:05:18.526Z,37.90
2022-07-30T12:06:16.725Z,38.50
2022-07-30T12:07:18.012Z,37.00
2022-07-30T12:08:36.065Z,35.20
2022-07-30T12:09:18.722Z,35.40
2022-07-30T12:10:14.504Z,34.60
2022-07-30T12:11:17.668Z,33.30
2022-07-30T12:12:18.599Z,33.00
2022-07-30T12:13:18.696Z,36.50
2022-07-30T12:14:19.293Z,35.70
2022-07-30T12:15:18.100Z,35.60
2022-07-30T12:16:18.215Z,33.60
2022-07-30T12:17:17.725Z,31.10
2022-07-30T12:18:26.487Z,31.10
2022-07-30T12:19:18.830Z,32.60
2022-07-30T12:20:19.672Z,34.30
2022-07-30T12:21:20.600Z,37.20
2022-07-30T12:22:18.569Z,37.70
2022-07-30T12:23:21.882Z,39.00
2022-07-30T12:24:18.458Z,38.60
2022-07-30T12:25:20.115Z,37.60
2022-07-30T12:26:20.217Z,37.20
2022-07-30T12:27:17.499Z,36.60
2022-07-30T12:28:23.865Z,36.10
2022-07-30T12:29:19.333Z,34.80
2022-07-30T12:30:19.992Z,34.10
2022-07-30T12:31:19.202Z,32.70
2022-07-30T12:32:20.899Z,32.80
2022-07-30T12:33:17.837Z,32.80
2022-07-30T12:34:25.371Z,32.30
2022-07-30T12:35:19.892Z,32.30
2022-07-30T12:36:18.646Z,32.20
2022-07-30T12:37:19.350Z,32.70
2022-07-30T12:38:17.822Z,31.40
2022-07-30T12:39:17.959Z,30.10
2022-07-30T12:40:19.085Z,31.00
2022-07-30T12:41:18.987Z,30.30
2022-07-30T12:42:25.554Z,30.90
2022-07-30T12:43:26.274Z,30.20
2022-07-30T12:44:20.367Z,29.80
2022-07-30T12:45:19.835Z,27.80
2022-07-30T12:46:20.489Z,28.40
2022-07-30T12:47:21.387Z,29.40
2022-07-30T12:48:19.944Z,29.50
2022-07-30T12:49:22.913Z,28.80
2022-07-30T12:50:20.329Z,29.40
2022-07-30T12:51:19.551Z,30.50
2022-07-30T12:52:18.771Z,30.40